ADDS METAR Data INFO
IDs: Format: Raw Decoded Include TAF

Data at: 1014 UTC 12 Dec 2017

KBDH 120955Z AUTO 29005KT 10SM SCT075 M13/M15 A3027 RMK AO2
KBDH 120935Z AUTO 30006KT 10SM CLR M13/M15 A3028 RMK AO2
KBDH 120915Z AUTO 29007KT 10SM CLR M13/M15 A3030 RMK AO2
KBDH 120855Z AUTO 29005KT 10SM CLR M13/M15 A3030 RMK AO2
KBDH 120835Z AUTO 29007KT 10SM CLR M13/M15 A3030 RMK AO2
KBDH 120815Z AUTO 29006KT 10SM CLR M13/M15 A3029 RMK AO2
KBDH 120755Z AUTO 30008KT 10SM CLR M13/M15 A3029 RMK AO2
KBDH 120735Z AUTO 31008KT 10SM CLR M12/M14 A3029 RMK AO2
KBDH 120715Z AUTO 31009KT 10SM CLR M12/M14 A3029 RMK AO2
KBDH 120655Z AUTO 31010KT 10SM CLR M12/M14 A3030 RMK AO2
KBDH 120635Z AUTO 30008KT 10SM CLR M12/M14 A3030 RMK AO2
KBDH 120615Z AUTO 31008KT 10SM CLR M12/M14 A3029 RMK AO2
KBDH 120555Z AUTO 31006KT 10SM CLR M12/M14 A3029 RMK AO2
KBDH 120535Z AUTO 31006KT 10SM CLR M12/M14 A3029 RMK AO2
KBDH 120515Z AUTO 31008KT 10SM CLR M12/M14 A3030 RMK AO2
KBDH 120455Z AUTO 31009KT 10SM CLR M12/M14 A3030 RMK AO2
KBDH 120435Z AUTO 31009KT 10SM CLR M12/M14 A3030 RMK AO2
KBDH 120415Z AUTO 31010KT 10SM CLR M11/M13 A3030 RMK AO2
KBDH 120355Z AUTO 31011KT 10SM CLR M11/M13 A3029 RMK AO2
KBDH 120335Z AUTO 31011KT 10SM CLR M11/M13 A3029 RMK AO2
KBDH 120315Z AUTO 31011KT 10SM CLR M11/M12 A3028 RMK AO2
KBDH 120255Z AUTO 31010KT 10SM CLR M11/M12 A3027 RMK AO2
KBDH 120235Z AUTO 31011KT 10SM CLR M10/M12 A3027 RMK AO2
KBDH 120215Z AUTO 31012G17KT 10SM CLR M10/M12 A3027 RMK AO2
KBDH 120155Z AUTO 31014KT 10SM CLR M09/M12 A3027 RMK AO2
KBDH 120135Z AUTO 32015G22KT 10SM CLR M09/M12 A3026 RMK AO2
KBDH 120115Z AUTO 32017G21KT 10SM CLR M09/M11 A3024 RMK AO2
KBDH 120055Z AUTO 32016G22KT 10SM CLR M08/M11 A3023 RMK AO2
KBDH 120035Z AUTO 32017G22KT 10SM SCT019 M08/M11 A3022 RMK AO2
KBDH 120015Z AUTO 31019G24KT 10SM SCT021 M07/M09 A3022 RMK AO2
KBDH 112355Z AUTO 32016G19KT 10SM BKN021 M06/M09 A3020 RMK AO2
KBDH 112335Z AUTO 32019G26KT 10SM OVC021 M05/M09 A3018 RMK AO2
KBDH 112315Z AUTO 32016G20KT 10SM OVC021 M04/M08 A3016 RMK AO2
KBDH 112255Z AUTO 33012KT 10SM BKN025 M04/M08 A3015 RMK AO2
KBDH 112235Z AUTO 34014KT 10SM CLR M04/M08 A3013 RMK AO2
KBDH 112215Z AUTO 34018KT 10SM CLR M04/M08 A3012 RMK AO2
KBDH 112155Z AUTO 34022G28KT 10SM BKN023 M03/M07 A3010 RMK AO2
KBDH 112135Z AUTO 34016G23KT 10SM OVC023 M02/M07 A3009 RMK AO2
KBDH 112115Z AUTO 34018G24KT 10SM OVC023 M02/M06 A3007 RMK AO2
KBDH 112055Z AUTO 34024G28KT 10SM OVC023 M02/M06 A3007 RMK AO2
KBDH 112035Z AUTO 32024G29KT 10SM OVC023 M01/M05 A3005 RMK AO2
KBDH 112015Z AUTO 33016G27KT 10SM OVC021 M01/M04 A3003 RMK AO2
KBDH 111955Z AUTO 33022G29KT 10SM OVC021 M01/M03 A3001 RMK AO2
KBDH 111935Z AUTO 33023G29KT 10SM OVC017 00/M03 A3000 RMK AO2
KBDH 111855Z AUTO 33026G30KT 10SM OVC017 00/M02 A2997 RMK AO2
KBDH 111835Z AUTO 32021G29KT 10SM OVC021 02/M01 A2995 RMK AO2
KBDH 111815Z AUTO 33018G29KT 10SM OVC021 02/M01 A2993 RMK AO2
KBDH 111755Z AUTO 33019G25KT 10SM OVC019 02/M01 A2992 RMK AO2
KBDH 111735Z AUTO 33022G27KT 10SM OVC017 02/00 A2990 RMK AO2
KBDH 111715Z AUTO 34020G29KT 10SM OVC015 02/00 A2989 RMK AO2
KBDH 111655Z AUTO 33021G26KT 10SM OVC017 02/01 A2987 RMK AO2
KBDH 111635Z AUTO 33016G23KT 10SM OVC017 03/01 A2986 RMK AO2
KBDH 111615Z AUTO 32014G24KT 10SM BKN015 OVC020 03/01 A2984 RMK AO2
KBDH 111555Z AUTO 32015G21KT 10SM OVC013 02/01 A2982 RMK AO2
KBDH 111535Z AUTO 32015KT 10SM BKN013 OVC024 02/01 A2981 RMK AO2
KBDH 111515Z AUTO 32013KT 10SM SCT013 OVC022 02/01 A2980 RMK AO2
KBDH 111455Z AUTO 32014G18KT 10SM BKN013 BKN024 BKN050 02/01 A2979 RMK AO2
KBDH 111435Z AUTO 32011KT 10SM SCT050 BKN085 02/01 A2977 RMK AO2
KBDH 111415Z AUTO 32014KT 10SM SCT085 01/00 A2976 RMK AO2
KBDH 111355Z AUTO 31013G18KT 10SM SCT085 02/00 A2975 RMK AO2
KBDH 111335Z AUTO 30010G16KT 10SM SCT095 02/M01 A2974 RMK AO2
KBDH 111315Z AUTO 30007KT 10SM SCT095 02/M01 A2973 RMK AO2
KBDH 111255Z AUTO 31012KT 10SM CLR 02/M01 A2973 RMK AO2
KBDH 111235Z AUTO 30009KT 10SM SCT080 02/M01 A2973 RMK AO2
KBDH 111215Z AUTO 29011G17KT 10SM SCT080 02/M01 A2973 RMK AO2
KBDH 111155Z AUTO 26006KT 10SM CLR 00/M01 A2972 RMK AO2
KBDH 111135Z AUTO 00000KT 10SM SCT065 M01/M01 A2972 RMK AO2
KBDH 111115Z AUTO 00000KT 10SM SCT065 SCT085 M01/M01 A2972 RMK AO2
KBDH 111055Z AUTO 00000KT 10SM SCT027 BKN070 OVC085 00/M01 A2972 RMK AO2 P0002
KBDH 111035Z AUTO 15007KT 3SM UP SCT024 SCT030 BKN044 M01/M02 A2970 RMK AO2 P0002
KBDH 111015Z AUTO 16004KT 10SM SCT085 M03/M04 A2973 RMK AO2
KBDH 110955Z AUTO 15004KT 10SM SCT085 M04/M05 A2974 RMK AO2
KBDH 110935Z AUTO 13003KT 10SM CLR M03/M04 A2976 RMK AO2
KBDH 110915Z AUTO 00000KT 10SM CLR M03/M04 A2976 RMK AO2
KBDH 110855Z AUTO 18003KT 10SM CLR M02/M04 A2978 RMK AO2
KBDH 110835Z AUTO 00000KT 10SM CLR M02/M04 A2980 RMK AO2
KBDH 110815Z AUTO 00000KT 10SM CLR M01/M03 A2980 RMK AO2
KBDH 110755Z AUTO 00000KT 10SM CLR M01/M03 A2981 RMK AO2
KBDH 110735Z AUTO 00000KT 10SM CLR 00/M03 A2983 RMK AO2
KBDH 110715Z AUTO 16003KT 10SM CLR 00/M03 A2984 RMK AO2
KBDH 110655Z AUTO 00000KT 10SM CLR 00/M03 A2986 RMK AO2
KBDH 110635Z AUTO 00000KT 10SM SCT050 00/M03 A2987 RMK AO2
KBDH 110615Z AUTO 00000KT 10SM BKN050 00/M03 A2988 RMK AO2
KBDH 110555Z AUTO 14005KT 10SM SCT055 00/M03 A2988 RMK AO2
KBDH 110535Z AUTO 00000KT 10SM BKN055 00/M03 A2991 RMK AO2
KBDH 110515Z AUTO 00000KT 10SM OVC055 00/M03 A2992 RMK AO2
KBDH 110455Z AUTO 16003KT 10SM SCT055 00/M03 A2991 RMK AO2
KBDH 110435Z AUTO 16003KT 10SM CLR M01/M03 A2992 RMK AO2
KBDH 110415Z AUTO 00000KT 10SM SCT046 M01/M03 A2995 RMK AO2
KBDH 110355Z AUTO 00000KT 10SM SCT050 M01/M03 A2996 RMK AO2
KBDH 110335Z AUTO 00000KT 10SM SCT085 M01/M03 A2998 RMK AO2
KBDH 110315Z AUTO 00000KT 10SM BKN085 M01/M03 A2997 RMK AO2
KBDH 110255Z AUTO 00000KT 10SM OVC085 M01/M04 A2998 RMK AO2
KBDH 110235Z AUTO 00000KT 10SM OVC085 M01/M04 A2998 RMK AO2
KBDH 110215Z AUTO 00000KT 10SM BKN085 M01/M04 A2998 RMK AO2
KBDH 110155Z AUTO 00000KT 10SM OVC085 M01/M04 A2999 RMK AO2
KBDH 110135Z AUTO 00000KT 10SM OVC085 M01/M04 A3000 RMK AO2
KBDH 110115Z AUTO 00000KT 10SM BKN085 M01/M04 A3001 RMK AO2
KBDH 110055Z AUTO 00000KT 10SM SCT085 00/M04 A3002 RMK AO2
KBDH 110035Z AUTO 30003KT 10SM SCT085 00/M04 A3003 RMK AO2
KBDH 110015Z AUTO 27003KT 10SM CLR 00/M04 A3005 RMK AO2
KBDH 102355Z AUTO 28005KT 10SM CLR 00/M04 A3005 RMK AO2
KBDH 102335Z AUTO 29006KT 10SM SCT100 00/M04 A3006 RMK AO2
KBDH 102315Z AUTO 30005KT 10SM SCT100 00/M05 A3005 RMK AO2
KBDH 102255Z AUTO 29006KT 10SM SCT090 00/M05 A3005 RMK AO2
KBDH 102235Z AUTO 32006KT 10SM BKN090 00/M04 A3005 RMK AO2
KBDH 102215Z AUTO 31008KT 10SM SCT090 01/M05 A3004 RMK AO2